createdAt,value
2018-06-04T00:00:02.274Z,97720.42
2018-06-04T00:02:30.800Z,97712.38
2018-06-04T00:04:58.501Z,97717.48
2018-06-04T00:07:27.051Z,97718.04
2018-06-04T00:09:55.638Z,97718.59
2018-06-04T00:12:24.387Z,97713.00
2018-06-04T00:14:53.063Z,97709.83
2018-06-04T00:17:22.265Z,97710.07
2018-06-04T00:19:50.105Z,97713.25
2018-06-04T00:22:17.986Z,97710.88
2018-06-04T00:24:45.809Z,97718.45
2018-06-04T00:27:13.477Z,97710.73
2018-06-04T00:29:41.179Z,97714.82
2018-06-04T00:32:09.712Z,97707.66
2018-06-04T00:34:38.704Z,97699.83
2018-06-04T00:37:07.975Z,97700.18
2018-06-04T00:39:35.931Z,97701.40
2018-06-04T00:42:04.479Z,97694.59
2018-06-04T00:44:33.149Z,97689.69
2018-06-04T00:47:01.805Z,97689.33
2018-06-04T00:49:30.380Z,97696.39
2018-06-04T00:51:59.299Z,97694.78
2018-06-04T00:54:27.133Z,97689.58
2018-06-04T00:56:55.816Z,97685.25
2018-06-04T00:59:24.580Z,97684.34
2018-06-04T01:01:53.171Z,97674.81
2018-06-04T01:04:21.961Z,97671.64
2018-06-04T01:06:50.653Z,97672.55
2018-06-04T01:09:18.495Z,97669.25
2018-06-04T01:11:47.106Z,97668.19
2018-06-04T01:14:15.685Z,97665.11
2018-06-04T01:16:43.396Z,97665.66
2018-06-04T01:19:11.190Z,97661.56
2018-06-04T01:21:39.805Z,97661.55
2018-06-04T01:24:08.437Z,97660.84
2018-06-04T01:26:37.609Z,97662.20
2018-06-04T01:29:06.120Z,97664.56
2018-06-04T01:31:35.206Z,97663.79
2018-06-04T01:34:04.080Z,97671.05
2018-06-04T01:36:32.585Z,97670.37
2018-06-04T01:39:01.657Z,97672.53
2018-06-04T01:41:30.336Z,97661.84
2018-06-04T01:43:58.925Z,97671.70
2018-06-04T01:46:27.527Z,97670.78
2018-06-04T01:48:55.490Z,97671.69
2018-06-04T01:51:24.100Z,97669.52
2018-06-04T01:53:52.685Z,97668.23
2018-06-04T01:56:20.676Z,97672.75
2018-06-04T01:58:49.339Z,97660.23
2018-06-04T02:01:18.030Z,97664.20
2018-06-04T02:03:47.321Z,97657.71
2018-06-04T02:06:15.294Z,97652.25
2018-06-04T02:08:44.844Z,97655.31
2018-06-04T02:11:12.634Z,97655.19
2018-06-04T02:13:41.252Z,97652.87
2018-06-04T02:16:10.065Z,97655.96
2018-06-04T02:18:38.617Z,97658.92
2018-06-04T02:21:08.017Z,97653.23
2018-06-04T02:23:36.582Z,97654.59
2018-06-04T02:26:05.291Z,97655.74
2018-06-04T02:28:34.042Z,97655.59
2018-06-04T02:31:02.784Z,97652.29
2018-06-04T02:33:31.416Z,97649.45
2018-06-04T02:35:59.221Z,97639.93
2018-06-04T02:38:28.043Z,97646.48
2018-06-04T02:40:56.700Z,97647.25
2018-06-04T02:43:26.002Z,97650.28
2018-06-04T02:45:55.600Z,97646.67
2018-06-04T02:48:24.351Z,97646.67
2018-06-04T02:50:53.012Z,97642.12
2018-06-04T02:53:21.772Z,97636.91
2018-06-04T02:55:50.392Z,97632.12
2018-06-04T02:58:19.219Z,97635.95
2018-06-04T03:00:47.956Z,97636.63
2018-06-04T03:03:16.756Z,97637.27
2018-06-04T03:05:45.441Z,97628.75
2018-06-04T03:08:14.240Z,97630.91
2018-06-04T03:10:42.887Z,97638.41
2018-06-04T03:13:11.576Z,97640.45
2018-06-04T03:15:40.188Z,97630.91
2018-06-04T03:18:08.825Z,97635.88
2018-06-04T03:20:37.502Z,97632.45
2018-06-04T03:23:06.275Z,97641.38
2018-06-04T03:25:34.834Z,97644.52
2018-06-04T03:28:04.353Z,97644.64
2018-06-04T03:30:32.993Z,97643.11
2018-06-04T03:33:01.630Z,97638.23
2018-06-04T03:35:30.267Z,97645.20
2018-06-04T03:37:59.080Z,97643.38
2018-06-04T03:40:27.842Z,97648.07
2018-06-04T03:42:56.497Z,97647.77
2018-06-04T03:45:25.198Z,97643.05
2018-06-04T03:47:53.925Z,97644.03
2018-06-04T03:50:22.515Z,97646.97
2018-06-04T03:52:51.447Z,97652.00
2018-06-04T03:55:20.956Z,97656.02
2018-06-04T03:57:50.005Z,97654.80
2018-06-04T04:00:18.876Z,97656.86
2018-06-04T04:02:47.628Z,97659.27
2018-06-04T04:05:16.585Z,97661.03
2018-06-04T04:07:45.789Z,97650.70
2018-06-04T04:10:14.466Z,97657.59
2018-06-04T04:12:43.265Z,97657.81
2018-06-04T04:15:12.150Z,97656.02
2018-06-04T04:17:40.745Z,97660.02
2018-06-04T04:20:09.394Z,97662.21
2018-06-04T04:22:38.227Z,97656.36
2018-06-04T04:25:07.136Z,97654.89
2018-06-04T04:27:35.750Z,97659.67
2018-06-04T04:30:03.886Z,97663.09
2018-06-04T04:32:32.212Z,97668.59
2018-06-04T04:35:00.076Z,97664.94
2018-06-04T04:37:28.696Z,97671.31
2018-06-04T04:39:57.266Z,97663.33
2018-06-04T04:42:25.875Z,97667.63
2018-06-04T04:44:54.436Z,97662.05
2018-06-04T04:47:23.311Z,97665.21
2018-06-04T04:49:51.870Z,97665.55
2018-06-04T04:52:21.377Z,97666.86
2018-06-04T04:54:50.310Z,97667.64
2018-06-04T04:57:18.817Z,97664.40
2018-06-04T04:59:47.917Z,97659.78
2018-06-04T05:02:16.715Z,97667.94
2018-06-04T05:04:45.236Z,97668.33
2018-06-04T05:07:13.842Z,97672.22
2018-06-04T05:09:42.495Z,97665.22
2018-06-04T05:12:11.157Z,97661.82
2018-06-04T05:14:39.647Z,97667.73
2018-06-04T05:17:08.396Z,97664.21
2018-06-04T05:19:37.006Z,97662.00
2018-06-04T05:22:05.921Z,97668.97
2018-06-04T05:24:34.661Z,97666.76
2018-06-04T05:27:03.363Z,97665.72
2018-06-04T05:29:32.197Z,97671.14
2018-06-04T05:32:00.881Z,97669.48
2018-06-04T05:34:29.479Z,97659.81
2018-06-04T05:36:58.067Z,97658.22
2018-06-04T05:39:26.699Z,97659.28
2018-06-04T05:41:55.211Z,97655.16
2018-06-04T05:44:23.798Z,97649.56
2018-06-04T05:46:52.536Z,97656.02
2018-06-04T05:49:21.267Z,97661.28
2018-06-04T05:51:49.957Z,97660.17
2018-06-04T05:54:19.218Z,97653.59
2018-06-04T05:56:47.824Z,97643.36
2018-06-04T05:59:16.527Z,97649.56
2018-06-04T06:01:44.728Z,97642.44
2018-06-04T06:04:12.806Z,97643.92
2018-06-04T06:06:40.779Z,97641.62
2018-06-04T06:09:09.164Z,97644.00
2018-06-04T06:11:37.825Z,97640.16
2018-06-04T06:14:05.953Z,97636.22
2018-06-04T06:16:34.663Z,97646.06
2018-06-04T06:19:03.307Z,97641.83
2018-06-04T06:21:32.048Z,97645.56
2018-06-04T06:24:00.803Z,97642.66
2018-06-04T06:26:29.548Z,97639.95
2018-06-04T06:28:58.107Z,97635.01
2018-06-04T06:31:26.712Z,97632.13
2018-06-04T06:33:55.204Z,97633.44
2018-06-04T06:36:23.726Z,97625.52
2018-06-04T06:38:52.458Z,97622.69
2018-06-04T06:41:20.967Z,97623.79
2018-06-04T06:43:50.777Z,97615.86
2018-06-04T06:46:19.371Z,97619.50
2018-06-04T06:48:47.999Z,97623.92
2018-06-04T06:51:16.683Z,97623.50
2018-06-04T06:53:45.551Z,97614.37
2018-06-04T06:56:14.378Z,97611.24
2018-06-04T06:58:43.114Z,97607.25
2018-06-04T07:01:11.318Z,97611.39
2018-06-04T07:03:39.153Z,97609.95
2018-06-04T07:06:07.801Z,97608.28
2018-06-04T07:08:35.573Z,97609.31
2018-06-04T07:11:03.617Z,97606.73
2018-06-04T07:13:31.908Z,97609.67
2018-06-04T07:16:00.577Z,97602.04
2018-06-04T07:18:28.457Z,97609.73
2018-06-04T07:20:57.831Z,97608.41
2018-06-04T07:23:26.418Z,97610.72
2018-06-04T07:25:54.414Z,97607.14
2018-06-04T07:28:23.028Z,97610.78
2018-06-04T07:30:50.752Z,97615.46
2018-06-04T07:33:19.347Z,97603.59
2018-06-04T07:35:48.012Z,97602.79
2018-06-04T07:38:15.806Z,97596.23
2018-06-04T07:40:43.489Z,97597.05
2018-06-04T07:43:11.272Z,97598.30
2018-06-04T07:45:39.103Z,97602.20
2018-06-04T07:48:06.917Z,97594.91
2018-06-04T07:50:34.747Z,97601.42
2018-06-04T07:53:02.627Z,97601.59
2018-06-04T07:55:31.839Z,97597.48
2018-06-04T07:58:00.753Z,97598.77
2018-06-04T08:00:29.462Z,97595.06
2018-06-04T08:02:58.433Z,97597.69
2018-06-04T08:05:27.126Z,97591.98
2018-06-04T08:07:55.830Z,97594.22
2018-06-04T08:10:23.803Z,97589.05
2018-06-04T08:12:52.511Z,97584.87
2018-06-04T08:15:21.578Z,97588.44
2018-06-04T08:17:50.317Z,97583.55
2018-06-04T08:20:19.117Z,97587.29
2018-06-04T08:22:48.424Z,97590.38
2018-06-04T08:25:17.033Z,97586.63
2018-06-04T08:27:45.751Z,97583.06
2018-06-04T08:30:14.468Z,97577.73
2018-06-04T08:32:43.178Z,97584.08
2018-06-04T08:35:11.984Z,97579.19
2018-06-04T08:37:40.794Z,97577.36
2018-06-04T08:40:09.441Z,97571.83
2018-06-04T08:42:38.146Z,97568.94
2018-06-04T08:45:06.831Z,97571.80
2018-06-04T08:47:35.329Z,97571.25
2018-06-04T08:50:03.974Z,97570.37
2018-06-04T08:52:32.698Z,97571.03
2018-06-04T08:55:01.454Z,97566.11
2018-06-04T08:57:30.610Z,97568.50
2018-06-04T08:59:59.320Z,97562.74
2018-06-04T09:02:27.917Z,97566.77
2018-06-04T09:04:56.574Z,97558.83
2018-06-04T09:07:25.172Z,97563.73
2018-06-04T09:09:53.778Z,97563.87
2018-06-04T09:12:22.430Z,97562.70
2018-06-04T09:14:51.185Z,97558.66
2018-06-04T09:17:19.943Z,97559.67
2018-06-04T09:19:48.709Z,97565.28
2018-06-04T09:22:17.467Z,97557.97
2018-06-04T09:24:45.994Z,97546.07
2018-06-04T09:27:14.611Z,97554.36
2018-06-04T09:29:43.369Z,97552.05
2018-06-04T09:32:12.086Z,97545.16
2018-06-04T09:34:40.684Z,97543.17
2018-06-04T09:37:09.349Z,97549.55
2018-06-04T09:39:38.277Z,97532.57
2018-06-04T09:42:07.057Z,97534.77
2018-06-04T09:44:35.728Z,97538.29
2018-06-04T09:47:04.346Z,97538.80
2018-06-04T09:49:33.050Z,97537.30
2018-06-04T09:52:01.553Z,97536.35
2018-06-04T09:54:30.244Z,97525.77
2018-06-04T09:56:58.748Z,97531.59
2018-06-04T09:59:27.330Z,97526.98
2018-06-04T10:01:55.864Z,97524.02
2018-06-04T10:04:24.373Z,97523.94
2018-06-04T10:06:53.374Z,97520.62
2018-06-04T10:09:22.390Z,97519.67
2018-06-04T10:11:51.658Z,97511.17
2018-06-04T10:14:20.245Z,97516.92
2018-06-04T10:16:49.568Z,97511.79
2018-06-04T10:19:18.313Z,97512.05
2018-06-04T10:21:47.119Z,97503.09
2018-06-04T10:24:15.657Z,97511.22
2018-06-04T10:26:44.289Z,97504.31
2018-06-04T10:29:12.844Z,97497.75
2018-06-04T10:31:41.609Z,97488.98
2018-06-04T10:34:10.744Z,97496.63
2018-06-04T10:36:39.404Z,97491.69
2018-06-04T10:39:09.690Z,97494.63
2018-06-04T10:41:38.347Z,97494.33
2018-06-04T10:44:07.023Z,97494.80
2018-06-04T10:46:35.755Z,97491.22
2018-06-04T10:49:04.363Z,97493.48
2018-06-04T10:51:33.203Z,97492.97
2018-06-04T10:54:02.606Z,97490.12
2018-06-04T10:56:32.120Z,97488.56
2018-06-04T10:59:01.202Z,97485.03
2018-06-04T11:01:29.903Z,97475.47
2018-06-04T11:03:58.778Z,97478.98
2018-06-04T11:06:27.750Z,97475.86
2018-06-04T11:08:56.667Z,97469.63
2018-06-04T11:11:25.258Z,97463.91
2018-06-04T11:13:54.113Z,97469.41
2018-06-04T11:16:22.740Z,97465.94
2018-06-04T11:18:51.263Z,97467.64
2018-06-04T11:21:20.135Z,97450.09
2018-06-04T11:23:48.740Z,97459.60
2018-06-04T11:26:17.406Z,97452.60
2018-06-04T11:28:46.860Z,97457.86
2018-06-04T11:31:17.552Z,97456.30
2018-06-04T11:33:46.251Z,97451.36
2018-06-04T11:36:14.794Z,97450.73
2018-06-04T11:38:44.280Z,97448.89
2018-06-04T11:41:14.163Z,97437.79
2018-06-04T11:43:42.705Z,97442.16
2018-06-04T11:46:11.615Z,97445.02
2018-06-04T11:48:40.187Z,97446.74
2018-06-04T11:51:08.806Z,97446.67
2018-06-04T11:53:37.869Z,97439.77
2018-06-04T11:56:07.370Z,97425.34
2018-06-04T11:58:36.089Z,97426.45
2018-06-04T12:01:04.911Z,97426.43
2018-06-04T12:03:33.825Z,97421.77
2018-06-04T12:06:03.306Z,97421.16
2018-06-04T12:08:31.989Z,97423.30
2018-06-04T12:11:00.714Z,97416.13
2018-06-04T12:13:29.510Z,97411.13
2018-06-04T12:15:58.063Z,97402.86
2018-06-04T12:18:26.649Z,97408.06
2018-06-04T12:20:55.643Z,97408.20
2018-06-04T12:23:24.304Z,97413.22
2018-06-04T12:25:53.245Z,97416.56
2018-06-04T12:28:22.288Z,97400.89
2018-06-04T12:30:51.348Z,97401.97
2018-06-04T12:33:19.963Z,97392.41
2018-06-04T12:35:48.693Z,97398.23
2018-06-04T12:38:17.332Z,97398.44
2018-06-04T12:40:46.159Z,97395.13
2018-06-04T12:43:14.932Z,97384.26
2018-06-04T12:45:44.603Z,97375.80
2018-06-04T12:48:21.620Z,97372.09
2018-06-04T12:50:51.269Z,97370.84
2018-06-04T12:53:20.041Z,97368.77
2018-06-04T12:55:48.700Z,97360.78
2018-06-04T12:58:17.700Z,97359.56
2018-06-04T13:00:47.469Z,97353.61
2018-06-04T13:03:16.166Z,97356.82
2018-06-04T13:05:44.796Z,97356.59
2018-06-04T13:08:13.697Z,97349.71
2018-06-04T13:10:42.630Z,97342.91
2018-06-04T13:13:11.379Z,97338.95
2018-06-04T13:15:40.103Z,97333.00
2018-06-04T13:18:08.848Z,97340.69
2018-06-04T13:20:37.756Z,97337.77
2018-06-04T13:23:06.439Z,97332.18
2018-06-04T13:25:35.977Z,97328.73
2018-06-04T13:28:04.584Z,97326.33
2018-06-04T13:30:33.231Z,97313.84
2018-06-04T13:33:02.016Z,97319.05
2018-06-04T13:35:30.953Z,97316.63
2018-06-04T13:37:59.699Z,97303.50
2018-06-04T13:40:28.249Z,97312.00
2018-06-04T13:42:57.030Z,97298.95
2018-06-04T13:45:26.235Z,97293.45
2018-06-04T13:47:54.979Z,97291.95
2018-06-04T13:50:23.684Z,97297.68
2018-06-04T13:52:52.176Z,97291.57
2018-06-04T13:55:20.994Z,97285.69
2018-06-04T13:57:49.715Z,97279.00
2018-06-04T14:00:18.545Z,97280.47
2018-06-04T14:02:47.260Z,97280.20
2018-06-04T14:05:15.850Z,97272.14
2018-06-04T14:07:44.491Z,97270.41
2018-06-04T14:10:13.240Z,97271.25
2018-06-04T14:12:41.859Z,97267.71
2018-06-04T14:15:09.918Z,97263.18
2018-06-04T14:17:38.113Z,97264.22
2018-06-04T14:20:06.703Z,97264.50
2018-06-04T14:22:35.505Z,97259.17
2018-06-04T14:25:04.171Z,97258.45
2018-06-04T14:27:32.718Z,97252.98
2018-06-04T14:30:01.235Z,97249.06
2018-06-04T14:32:28.975Z,97239.71
2018-06-04T14:34:57.651Z,97237.11
2018-06-04T14:37:26.455Z,97232.48
2018-06-04T14:39:55.155Z,97228.30
2018-06-04T14:42:22.936Z,97229.23
2018-06-04T14:44:50.980Z,97223.27
2018-06-04T14:47:18.798Z,97222.09
2018-06-04T14:49:47.548Z,97215.34
2018-06-04T14:52:16.242Z,97218.97
2018-06-04T14:54:44.955Z,97206.13
2018-06-04T14:57:13.574Z,97209.53
2018-06-04T14:59:42.389Z,97207.30
2018-06-04T15:02:11.204Z,97213.44
2018-06-04T15:04:39.761Z,97203.92
2018-06-04T15:07:09.107Z,97198.59
2018-06-04T15:09:37.944Z,97197.00
2018-06-04T15:12:06.673Z,97200.50
2018-06-04T15:14:35.332Z,97203.59
2018-06-04T15:17:03.995Z,97195.86
2018-06-04T15:19:32.529Z,97205.22
2018-06-04T15:22:02.170Z,97208.58
2018-06-04T15:24:30.735Z,97209.54
2018-06-04T15:26:59.238Z,97205.72
2018-06-04T15:29:27.772Z,97206.48
2018-06-04T15:31:55.823Z,97207.34
2018-06-04T15:34:24.411Z,97203.35
2018-06-04T15:36:53.299Z,97200.80
2018-06-04T15:39:22.160Z,97194.05
2018-06-04T15:41:51.396Z,97197.15
2018-06-04T15:44:20.709Z,97201.30
2018-06-04T15:46:48.617Z,97201.27
2018-06-04T15:49:17.189Z,97204.20
2018-06-04T15:51:45.797Z,97204.75
2018-06-04T15:54:14.481Z,97204.60
2018-06-04T15:56:43.977Z,97196.37
2018-06-04T15:59:11.951Z,97188.25
2018-06-04T16:01:39.976Z,97192.16
2018-06-04T16:04:07.879Z,97194.55
2018-06-04T16:06:36.552Z,97194.09
2018-06-04T16:09:07.311Z,97197.79
2018-06-04T16:11:36.049Z,97198.67
2018-06-04T16:14:04.795Z,97186.83
2018-06-04T16:16:33.339Z,97197.31
2018-06-04T16:19:02.216Z,97189.19
2018-06-04T16:21:30.929Z,97190.08
2018-06-04T16:23:59.795Z,97191.79
2018-06-04T16:26:28.771Z,97193.94
2018-06-04T16:28:57.739Z,97192.58
2018-06-04T16:31:26.546Z,97200.34
2018-06-04T16:33:55.072Z,97196.22
2018-06-04T16:36:24.135Z,97204.73
2018-06-04T16:38:52.016Z,97199.41
2018-06-04T16:41:22.065Z,97198.33
2018-06-04T16:43:50.690Z,97207.73
2018-06-04T16:46:19.511Z,97198.33
2018-06-04T16:48:47.819Z,97195.23
2018-06-04T16:51:15.691Z,97198.19
2018-06-04T16:53:44.429Z,97192.05
2018-06-04T16:56:13.101Z,97202.38
2018-06-04T16:58:41.061Z,97206.00
2018-06-04T17:01:09.978Z,97206.09
2018-06-04T17:03:38.955Z,97202.84
2018-06-04T17:06:07.957Z,97208.41
2018-06-04T17:08:36.707Z,97205.69
2018-06-04T17:11:05.612Z,97206.33
2018-06-04T17:13:34.702Z,97202.71
2018-06-04T17:16:02.739Z,97207.13
2018-06-04T17:18:31.755Z,97206.43
2018-06-04T17:20:59.711Z,97194.62
2018-06-04T17:23:28.187Z,97195.48
2018-06-04T17:25:56.134Z,97205.42
2018-06-04T17:28:24.006Z,97196.73
2018-06-04T17:30:51.961Z,97198.73
2018-06-04T17:33:19.834Z,97198.34
2018-06-04T17:35:47.546Z,97190.28
2018-06-04T17:38:16.082Z,97191.41
2018-06-04T17:40:44.874Z,97195.84
2018-06-04T17:43:12.887Z,97188.31
2018-06-04T17:45:41.135Z,97188.22
2018-06-04T17:48:08.955Z,97194.51
2018-06-04T17:50:36.882Z,97188.72
2018-06-04T17:53:06.021Z,97182.04
2018-06-04T17:55:35.986Z,97183.09
2018-06-04T17:58:03.994Z,97179.78
2018-06-04T18:00:32.722Z,97185.23
2018-06-04T18:03:01.116Z,97187.34
2018-06-04T18:05:28.918Z,97183.23
2018-06-04T18:07:56.712Z,97188.36
2018-06-04T18:10:25.612Z,97188.31
2018-06-04T18:12:54.516Z,97183.17
2018-06-04T18:15:23.162Z,97188.72
2018-06-04T18:17:52.601Z,97193.89
2018-06-04T18:20:21.172Z,97200.80
2018-06-04T18:22:49.747Z,97200.11
2018-06-04T18:25:18.503Z,97210.92
2018-06-04T18:27:47.203Z,97208.83
2018-06-04T18:30:15.922Z,97213.03
2018-06-04T18:32:44.527Z,97207.88
2018-06-04T18:35:13.341Z,97211.83
2018-06-04T18:37:42.177Z,97215.08
2018-06-04T18:40:10.954Z,97211.33
2018-06-04T18:42:38.803Z,97207.56
2018-06-04T18:45:06.796Z,97209.92
2018-06-04T18:47:34.682Z,97222.39
2018-06-04T18:50:02.587Z,97226.63
2018-06-04T18:52:30.626Z,97233.83
2018-06-04T18:54:58.630Z,97240.70
2018-06-04T18:57:26.670Z,97245.19
2018-06-04T18:59:54.761Z,97254.05
2018-06-04T19:02:22.615Z,97257.09
2018-06-04T19:04:50.627Z,97262.69
2018-06-04T19:07:18.583Z,97265.93
2018-06-04T19:09:46.528Z,97264.87
2018-06-04T19:12:14.287Z,97273.97
2018-06-04T19:14:42.096Z,97274.44
2018-06-04T19:17:10.028Z,97274.05
2018-06-04T19:19:38.006Z,97277.69
2018-06-04T19:22:06.054Z,97289.56
2018-06-04T19:24:33.873Z,97296.39
2018-06-04T19:27:02.818Z,97296.02
2018-06-04T19:29:31.601Z,97302.27
2018-06-04T19:32:00.206Z,97308.84
2018-06-04T19:34:28.014Z,97315.73
2018-06-04T19:36:56.003Z,97316.41
2018-06-04T19:39:23.840Z,97313.66
2018-06-04T19:41:51.717Z,97319.26
2018-06-04T19:44:20.862Z,97327.34
2018-06-04T19:46:50.250Z,97327.59
2018-06-04T19:49:20.238Z,97333.48
2018-06-04T19:51:48.152Z,97332.51
2018-06-04T19:54:15.908Z,97331.06
2018-06-04T19:56:43.889Z,97339.91
2018-06-04T19:59:11.760Z,97338.11
2018-06-04T20:01:39.720Z,97337.08
2018-06-04T20:04:07.502Z,97342.73
2018-06-04T20:06:35.433Z,97341.51
2018-06-04T20:09:03.500Z,97351.67
2018-06-04T20:11:32.330Z,97355.58
2018-06-04T20:14:00.263Z,97351.67
2018-06-04T20:16:28.118Z,97354.11
2018-06-04T20:18:56.836Z,97359.34
2018-06-04T20:21:24.863Z,97360.84
2018-06-04T20:23:52.896Z,97365.88
2018-06-04T20:26:20.856Z,97364.02
2018-06-04T20:28:48.782Z,97369.23
2018-06-04T20:31:16.661Z,97361.92
2018-06-04T20:33:44.449Z,97365.20
2018-06-04T20:36:12.349Z,97362.45
2018-06-04T20:38:40.308Z,97366.66
2018-06-04T20:41:08.456Z,97369.41
2018-06-04T20:43:36.431Z,97374.89
2018-06-04T20:46:04.878Z,97374.81
2018-06-04T20:48:32.952Z,97374.23
2018-06-04T20:51:01.804Z,97377.20
2018-06-04T20:53:30.915Z,97378.41
2018-06-04T20:56:00.166Z,97385.08
2018-06-04T20:58:29.943Z,97384.06
2018-06-04T21:00:58.719Z,97380.52
2018-06-04T21:03:27.756Z,97378.71
2018-06-04T21:05:56.406Z,97377.09
2018-06-04T21:08:25.237Z,97377.73
2018-06-04T21:10:54.268Z,97378.25
2018-06-04T21:13:22.957Z,97381.86
2018-06-04T21:15:51.596Z,97379.41
2018-06-04T21:18:20.112Z,97374.66
2018-06-04T21:20:49.418Z,97384.61
2018-06-04T21:23:18.083Z,97385.66
2018-06-04T21:25:47.187Z,97387.66
2018-06-04T21:28:16.045Z,97392.85
2018-06-04T21:30:44.753Z,97390.84
2018-06-04T21:33:13.381Z,97388.00
2018-06-04T21:35:42.468Z,97389.03
2018-06-04T21:38:11.061Z,97386.34
2018-06-04T21:40:40.043Z,97383.90
2018-06-04T21:43:08.707Z,97385.88
2018-06-04T21:45:37.371Z,97382.34
2018-06-04T21:48:06.174Z,97378.22
2018-06-04T21:50:35.111Z,97388.60
2018-06-04T21:53:03.992Z,97383.24
2018-06-04T21:55:32.604Z,97383.95
2018-06-04T21:58:01.419Z,97375.41
2018-06-04T22:00:30.140Z,97376.91
2018-06-04T22:02:59.316Z,97373.22
2018-06-04T22:05:28.237Z,97377.95
2018-06-04T22:07:56.952Z,97372.00
2018-06-04T22:10:25.647Z,97373.27
2018-06-04T22:12:54.214Z,97365.03
2018-06-04T22:15:23.042Z,97363.23
2018-06-04T22:17:51.686Z,97363.63
2018-06-04T22:20:20.439Z,97365.64
2018-06-04T22:22:49.043Z,97369.03
2018-06-04T22:25:17.757Z,97365.08
2018-06-04T22:27:46.298Z,97368.56
2018-06-04T22:30:15.823Z,97365.41
2018-06-04T22:32:44.507Z,97355.46
2018-06-04T22:35:13.097Z,97357.11
2018-06-04T22:37:41.743Z,97349.48
2018-06-04T22:40:10.236Z,97350.28
2018-06-04T22:42:38.938Z,97344.52
2018-06-04T22:45:07.797Z,97350.66
2018-06-04T22:47:36.333Z,97343.53
2018-06-04T22:50:04.949Z,97339.71
2018-06-04T22:52:33.599Z,97345.48
2018-06-04T22:55:02.125Z,97349.59
2018-06-04T22:57:30.594Z,97347.42
2018-06-04T22:59:59.886Z,97348.13
2018-06-04T23:02:29.020Z,97343.97
2018-06-04T23:04:57.734Z,97341.01
2018-06-04T23:07:26.410Z,97337.65
2018-06-04T23:09:55.082Z,97348.93
2018-06-04T23:12:24.106Z,97342.53
2018-06-04T23:14:52.588Z,97341.67
2018-06-04T23:17:21.249Z,97335.84
2018-06-04T23:19:49.870Z,97339.37
2018-06-04T23:22:18.813Z,97336.91
2018-06-04T23:24:47.694Z,97341.24
2018-06-04T23:27:16.980Z,97338.51
2018-06-04T23:29:45.612Z,97335.27
2018-06-04T23:32:14.329Z,97337.83
2018-06-04T23:34:42.884Z,97342.17
2018-06-04T23:37:11.680Z,97339.35
2018-06-04T23:39:40.363Z,97341.16
2018-06-04T23:42:09.170Z,97343.70
2018-06-04T23:44:37.859Z,97337.61
2018-06-04T23:47:06.489Z,97347.20
2018-06-04T23:49:35.316Z,97354.98
2018-06-04T23:52:04.108Z,97351.45
2018-06-04T23:54:32.744Z,97344.56
2018-06-04T23:57:01.400Z,97352.71
2018-06-04T23:59:29.913Z,97349.28
